createdAt,value
2017-11-14T00:00:49.460Z,1015.84
2017-11-14T00:02:11.040Z,1015.80
2017-11-14T00:02:50.309Z,1015.82
2017-11-14T00:03:50.725Z,1015.82
2017-11-14T00:04:51.147Z,1015.82
2017-11-14T00:05:51.570Z,1015.77
2017-11-14T00:06:51.991Z,1015.80
2017-11-14T00:08:13.575Z,1015.80
2017-11-14T00:08:52.834Z,1015.83
2017-11-14T00:09:53.255Z,1015.86
2017-11-14T00:10:53.678Z,1015.89
2017-11-14T00:11:54.097Z,1015.88
2017-11-14T00:12:54.518Z,1015.90
2017-11-14T00:14:16.100Z,1015.93
2017-11-14T00:14:55.364Z,1015.97
2017-11-14T00:15:55.789Z,1015.92
2017-11-14T00:16:56.201Z,1016.01
2017-11-14T00:17:56.625Z,1015.99
2017-11-14T00:18:57.051Z,1015.99
2017-11-14T00:20:18.623Z,1016.03
2017-11-14T00:20:57.891Z,1016.03
2017-11-14T00:21:58.311Z,1016.03
2017-11-14T00:22:58.737Z,1016.09
2017-11-14T00:23:59.154Z,1016.13
2017-11-14T00:24:59.575Z,1016.15
2017-11-14T00:26:21.159Z,1016.18
2017-11-14T00:27:00.424Z,1016.17
2017-11-14T00:28:00.842Z,1016.18
2017-11-14T00:29:01.264Z,1016.19
2017-11-14T00:30:01.701Z,1016.22
2017-11-14T00:31:02.104Z,1016.22
2017-11-14T00:32:23.690Z,1016.21
2017-11-14T00:33:02.951Z,1016.26
2017-11-14T00:34:03.372Z,1016.26
2017-11-14T00:35:03.803Z,1016.23
2017-11-14T00:36:04.213Z,1016.25
2017-11-14T00:37:04.634Z,1016.25
2017-11-14T00:38:26.212Z,1016.24
2017-11-14T00:39:05.477Z,1016.26
2017-11-14T00:40:05.899Z,1016.32
2017-11-14T00:41:06.327Z,1016.31
2017-11-14T00:42:06.749Z,1016.28
2017-11-14T00:43:07.163Z,1016.30
2017-11-14T00:44:28.739Z,1016.31
2017-11-14T00:45:08.008Z,1016.33
2017-11-14T00:46:08.429Z,1016.37
2017-11-14T00:47:08.847Z,1016.33
2017-11-14T00:48:09.271Z,1016.37
2017-11-14T00:49:09.694Z,1016.40
2017-11-14T00:50:31.275Z,1016.37
2017-11-14T00:51:10.533Z,1016.41
2017-11-14T00:52:10.960Z,1016.44
2017-11-14T00:53:11.378Z,1016.42
2017-11-14T00:54:11.797Z,1016.46
2017-11-14T00:55:12.229Z,1016.48
2017-11-14T00:56:33.794Z,1016.47
2017-11-14T00:57:13.058Z,1016.51
2017-11-14T00:58:13.482Z,1016.46
2017-11-14T00:59:13.904Z,1016.48
2017-11-14T01:00:14.320Z,1016.45
2017-11-14T01:01:14.746Z,1016.47
2017-11-14T01:02:36.322Z,1016.49
2017-11-14T01:03:15.592Z,1016.49
2017-11-14T01:04:16.011Z,1016.50
2017-11-14T01:05:16.435Z,1016.50
2017-11-14T01:06:16.846Z,1016.54
2017-11-14T01:07:17.271Z,1016.54
2017-11-14T01:08:38.847Z,1016.52
2017-11-14T01:09:18.113Z,1016.51
2017-11-14T01:10:18.539Z,1016.48
2017-11-14T01:11:18.965Z,1016.49
2017-11-14T01:12:19.376Z,1016.48
2017-11-14T01:13:19.796Z,1016.48
2017-11-14T01:14:41.377Z,1016.49
2017-11-14T01:15:20.638Z,1016.52
2017-11-14T01:16:21.062Z,1016.54
2017-11-14T01:17:21.484Z,1016.55
2017-11-14T01:18:21.902Z,1016.54
2017-11-14T01:19:22.322Z,1016.52
2017-11-14T01:20:43.897Z,1016.53
2017-11-14T01:21:23.164Z,1016.54
2017-11-14T01:22:23.588Z,1016.55
2017-11-14T01:23:24.004Z,1016.56
2017-11-14T01:24:24.429Z,1016.55
2017-11-14T01:25:24.851Z,1016.62
2017-11-14T01:26:46.424Z,1016.60
2017-11-14T01:27:25.690Z,1016.59
2017-11-14T01:28:26.113Z,1016.62
2017-11-14T01:29:26.532Z,1016.62
2017-11-14T01:30:26.953Z,1016.59
2017-11-14T01:31:27.375Z,1016.63
2017-11-14T01:32:48.956Z,1016.60
2017-11-14T01:33:28.217Z,1016.63
2017-11-14T01:34:28.639Z,1016.62
2017-11-14T01:35:29.055Z,1016.63
2017-11-14T01:36:29.482Z,1016.66
2017-11-14T01:37:29.899Z,1016.62
2017-11-14T01:38:51.478Z,1016.62
2017-11-14T01:39:30.747Z,1016.64
2017-11-14T01:40:31.160Z,1016.64
2017-11-14T01:41:31.586Z,1016.62
2017-11-14T01:42:32.002Z,1016.62
2017-11-14T01:43:32.424Z,1016.61
2017-11-14T01:44:54.004Z,1016.61
2017-11-14T01:45:33.283Z,1016.59
2017-11-14T01:46:33.688Z,1016.57
2017-11-14T01:47:34.113Z,1016.55
2017-11-14T01:48:34.535Z,1016.55
2017-11-14T01:49:34.954Z,1016.53
2017-11-14T01:50:56.526Z,1016.56
2017-11-14T01:51:35.791Z,1016.54
2017-11-14T01:52:36.214Z,1016.56
2017-11-14T01:53:36.633Z,1016.62
2017-11-14T01:54:37.061Z,1016.62
2017-11-14T01:55:37.477Z,1016.65
2017-11-14T01:56:59.054Z,1016.65
2017-11-14T01:57:38.312Z,1016.67
2017-11-14T01:58:38.739Z,1016.66
2017-11-14T01:59:39.155Z,1016.66
2017-11-14T02:00:39.593Z,1016.65
2017-11-14T02:01:40.000Z,1016.66
2017-11-14T02:03:01.573Z,1016.62
2017-11-14T02:03:40.840Z,1016.61
2017-11-14T02:04:41.264Z,1016.62
2017-11-14T02:05:41.680Z,1016.61
2017-11-14T02:06:42.099Z,1016.62
2017-11-14T02:07:42.521Z,1016.62
2017-11-14T02:09:04.097Z,1016.63
2017-11-14T02:09:43.366Z,1016.66
2017-11-14T02:10:43.786Z,1016.66
2017-11-14T02:11:44.209Z,1016.69
2017-11-14T02:12:44.625Z,1016.65
2017-11-14T02:13:45.054Z,1016.63
2017-11-14T02:15:06.627Z,1016.66
2017-11-14T02:15:45.888Z,1016.67
2017-11-14T02:16:46.308Z,1016.67
2017-11-14T02:17:46.726Z,1016.69
2017-11-14T02:18:47.149Z,1016.72
2017-11-14T02:19:47.577Z,1016.69
2017-11-14T02:21:09.149Z,1016.72
2017-11-14T02:21:48.411Z,1016.72
2017-11-14T02:22:48.841Z,1016.73
2017-11-14T02:23:49.258Z,1016.77
2017-11-14T02:24:49.675Z,1016.78
2017-11-14T02:25:50.092Z,1016.75
2017-11-14T02:27:11.692Z,1016.77
2017-11-14T02:27:50.936Z,1016.78
2017-11-14T02:28:51.354Z,1016.82
2017-11-14T02:29:51.782Z,1016.78
2017-11-14T02:30:52.198Z,1016.83
2017-11-14T02:31:52.614Z,1016.81
2017-11-14T02:33:14.197Z,1016.81
2017-11-14T02:33:53.460Z,1016.77
2017-11-14T02:34:53.882Z,1016.82
2017-11-14T02:35:54.302Z,1016.82
2017-11-14T02:36:54.718Z,1016.78
2017-11-14T02:37:55.139Z,1016.86
2017-11-14T02:39:16.715Z,1016.85
2017-11-14T02:39:55.985Z,1016.82
2017-11-14T02:40:56.404Z,1016.83
2017-11-14T02:41:56.823Z,1016.84
2017-11-14T02:42:57.246Z,1016.87
2017-11-14T02:43:57.677Z,1016.85
2017-11-14T02:45:19.240Z,1016.84
2017-11-14T02:45:58.503Z,1016.85
2017-11-14T02:46:58.924Z,1016.85
2017-11-14T02:47:59.354Z,1016.84
2017-11-14T02:48:59.769Z,1016.86
2017-11-14T02:50:00.187Z,1016.86
2017-11-14T02:51:21.766Z,1016.84
2017-11-14T02:52:01.026Z,1016.87
2017-11-14T02:53:01.448Z,1016.86
2017-11-14T02:54:01.869Z,1016.87
2017-11-14T02:55:02.290Z,1016.88
2017-11-14T02:56:02.737Z,1016.88
2017-11-14T02:57:24.290Z,1016.87
2017-11-14T02:58:03.557Z,1016.89
2017-11-14T02:59:03.975Z,1016.87
2017-11-14T03:00:04.392Z,1016.90
2017-11-14T03:01:04.809Z,1016.86
2017-11-14T03:02:05.231Z,1016.85
2017-11-14T03:03:26.807Z,1016.89
2017-11-14T03:04:06.075Z,1016.85
2017-11-14T03:05:06.493Z,1016.88
2017-11-14T03:06:06.911Z,1016.87
2017-11-14T03:07:07.336Z,1016.85
2017-11-14T03:08:07.755Z,1016.85
2017-11-14T03:09:29.332Z,1016.84
2017-11-14T03:10:08.596Z,1016.85
2017-11-14T03:11:09.015Z,1016.83
2017-11-14T03:12:09.435Z,1016.85
2017-11-14T03:13:09.859Z,1016.86
2017-11-14T03:14:10.276Z,1016.86
2017-11-14T03:15:31.855Z,1016.85
2017-11-14T03:16:11.117Z,1016.84
2017-11-14T03:17:11.538Z,1016.87
2017-11-14T03:18:11.960Z,1016.88
2017-11-14T03:19:12.382Z,1016.89
2017-11-14T03:20:12.800Z,1016.90
2017-11-14T03:21:34.378Z,1016.90
2017-11-14T03:22:13.647Z,1016.94
2017-11-14T03:23:14.067Z,1016.95
2017-11-14T03:24:14.486Z,1016.96
2017-11-14T03:25:14.976Z,1016.97
2017-11-14T03:26:15.324Z,1016.98
2017-11-14T03:27:36.911Z,1016.95
2017-11-14T03:28:16.171Z,1016.96
2017-11-14T03:29:16.584Z,1016.96
2017-11-14T03:30:17.012Z,1016.99
2017-11-14T03:31:17.432Z,1017.01
2017-11-14T03:32:17.852Z,1017.00
2017-11-14T03:33:39.428Z,1016.97
2017-11-14T03:34:18.688Z,1016.99
2017-11-14T03:35:19.108Z,1016.98
2017-11-14T03:36:19.538Z,1016.99
2017-11-14T03:37:19.952Z,1016.98
2017-11-14T03:38:20.374Z,1016.98
2017-11-14T03:39:41.955Z,1017.02
2017-11-14T03:40:21.213Z,1016.99
2017-11-14T03:41:21.637Z,1017.00
2017-11-14T03:42:22.054Z,1017.02
2017-11-14T03:43:22.493Z,1017.01
2017-11-14T03:44:22.897Z,1017.01
2017-11-14T03:45:44.476Z,1016.99
2017-11-14T03:46:23.741Z,1017.02
2017-11-14T03:47:24.163Z,1017.01
2017-11-14T03:48:24.579Z,1017.03
2017-11-14T03:49:25.004Z,1017.01
2017-11-14T03:50:25.423Z,1017.05
2017-11-14T03:51:46.998Z,1017.04
2017-11-14T03:52:26.264Z,1017.08
2017-11-14T03:53:26.684Z,1017.12
2017-11-14T03:54:27.107Z,1017.10
2017-11-14T03:55:27.524Z,1017.09
2017-11-14T03:56:27.945Z,1017.12
2017-11-14T03:57:49.520Z,1017.10
2017-11-14T03:58:28.789Z,1017.09
2017-11-14T03:59:29.211Z,1017.08
2017-11-14T04:00:29.628Z,1017.08
2017-11-14T04:01:30.055Z,1017.08
2017-11-14T04:02:30.467Z,1017.08
2017-11-14T04:03:52.048Z,1017.07
2017-11-14T04:04:31.309Z,1017.03
2017-11-14T04:05:31.734Z,1017.03
2017-11-14T04:06:32.165Z,1017.02
2017-11-14T04:07:32.574Z,1017.00
2017-11-14T04:08:32.998Z,1017.05
2017-11-14T04:09:54.573Z,1017.09
2017-11-14T04:10:33.830Z,1017.10
2017-11-14T04:11:34.256Z,1017.08
2017-11-14T04:12:34.676Z,1017.08
2017-11-14T04:13:35.093Z,1017.07
2017-11-14T04:14:35.514Z,1017.06
2017-11-14T04:15:57.093Z,1017.08
2017-11-14T04:16:36.356Z,1017.08
2017-11-14T04:17:36.782Z,1017.15
2017-11-14T04:18:37.229Z,1017.10
2017-11-14T04:19:37.615Z,1017.07
2017-11-14T04:20:38.043Z,1017.12
2017-11-14T04:21:59.609Z,1017.10
2017-11-14T04:22:38.880Z,1017.05
2017-11-14T04:23:39.296Z,1017.05
2017-11-14T04:24:39.722Z,1017.04
2017-11-14T04:25:40.136Z,1017.05
2017-11-14T04:26:40.560Z,1017.05
2017-11-14T04:28:02.140Z,1017.09
2017-11-14T04:28:41.396Z,1017.10
2017-11-14T04:29:41.817Z,1017.13
2017-11-14T04:30:42.237Z,1017.08
2017-11-14T04:31:42.658Z,1017.09
2017-11-14T04:32:43.082Z,1017.14
2017-11-14T04:34:04.654Z,1017.20
2017-11-14T04:34:43.929Z,1017.23
2017-11-14T04:35:44.339Z,1017.22
2017-11-14T04:36:44.755Z,1017.21
2017-11-14T04:37:45.178Z,1017.22
2017-11-14T04:38:45.593Z,1017.24
2017-11-14T04:40:07.176Z,1017.22
2017-11-14T04:40:46.441Z,1017.21
2017-11-14T04:41:46.861Z,1017.24
2017-11-14T04:42:47.281Z,1017.24
2017-11-14T04:43:47.702Z,1017.26
2017-11-14T04:44:48.131Z,1017.23
2017-11-14T04:46:09.698Z,1017.22
2017-11-14T04:46:48.962Z,1017.22
2017-11-14T04:47:49.408Z,1017.26
2017-11-14T04:48:49.805Z,1017.27
2017-11-14T04:49:50.218Z,1017.22
2017-11-14T04:50:50.654Z,1017.19
2017-11-14T04:52:12.221Z,1017.22
2017-11-14T04:52:51.490Z,1017.22
2017-11-14T04:53:51.902Z,1017.22
2017-11-14T04:54:52.322Z,1017.23
2017-11-14T04:55:52.743Z,1017.26
2017-11-14T04:56:53.164Z,1017.27
2017-11-14T04:58:14.735Z,1017.30
2017-11-14T04:58:54.006Z,1017.32
2017-11-14T04:59:54.446Z,1017.30
2017-11-14T05:00:54.849Z,1017.33
2017-11-14T05:01:55.266Z,1017.36
2017-11-14T05:02:55.680Z,1017.36
2017-11-14T05:04:17.257Z,1017.36
2017-11-14T05:04:56.522Z,1017.41
2017-11-14T05:05:56.938Z,1017.40
2017-11-14T05:06:57.362Z,1017.40
2017-11-14T05:07:57.781Z,1017.37
2017-11-14T05:08:58.205Z,1017.35
2017-11-14T05:10:19.774Z,1017.34
2017-11-14T05:10:59.043Z,1017.35
2017-11-14T05:11:59.461Z,1017.32
2017-11-14T05:12:59.879Z,1017.37
2017-11-14T05:14:00.335Z,1017.39
2017-11-14T05:15:00.719Z,1017.41
2017-11-14T05:16:22.298Z,1017.40
2017-11-14T05:17:01.562Z,1017.42
2017-11-14T05:18:01.984Z,1017.38
2017-11-14T05:19:02.400Z,1017.40
2017-11-14T05:20:02.852Z,1017.43
2017-11-14T05:21:03.253Z,1017.43
2017-11-14T05:22:24.819Z,1017.39
2017-11-14T05:23:04.096Z,1017.47
2017-11-14T05:24:04.507Z,1017.49
2017-11-14T05:25:04.925Z,1017.49
2017-11-14T05:26:05.341Z,1017.49
2017-11-14T05:27:05.761Z,1017.53
2017-11-14T05:28:27.340Z,1017.53
2017-11-14T05:29:06.603Z,1017.51
2017-11-14T05:30:07.020Z,1017.49
2017-11-14T05:31:07.442Z,1017.52
2017-11-14T05:32:07.862Z,1017.53
2017-11-14T05:33:08.289Z,1017.54
2017-11-14T05:34:29.860Z,1017.59
2017-11-14T05:35:09.129Z,1017.57
2017-11-14T05:36:09.563Z,1017.61
2017-11-14T05:37:09.970Z,1017.63
2017-11-14T05:38:10.384Z,1017.63
2017-11-14T05:39:10.807Z,1017.60
2017-11-14T05:40:32.388Z,1017.64
2017-11-14T05:41:11.645Z,1017.69
2017-11-14T05:42:12.060Z,1017.65
2017-11-14T05:43:12.483Z,1017.68
2017-11-14T05:44:12.901Z,1017.70
2017-11-14T05:45:13.328Z,1017.69
2017-11-14T05:46:34.903Z,1017.67
2017-11-14T05:47:14.162Z,1017.73
2017-11-14T05:48:14.581Z,1017.77
2017-11-14T05:49:15.007Z,1017.74
2017-11-14T05:50:15.425Z,1017.79
2017-11-14T05:51:15.867Z,1017.76
2017-11-14T05:52:37.421Z,1017.79
2017-11-14T05:53:16.687Z,1017.77
2017-11-14T05:54:17.099Z,1017.79
2017-11-14T05:55:17.529Z,1017.77
2017-11-14T05:56:17.953Z,1017.77
2017-11-14T05:57:18.365Z,1017.79
2017-11-14T05:58:39.956Z,1017.74
2017-11-14T05:59:19.206Z,1017.82
2017-11-14T06:00:19.622Z,1017.80
2017-11-14T06:01:20.054Z,1017.80
2017-11-14T06:02:20.464Z,1017.85
2017-11-14T06:03:20.880Z,1017.79
2017-11-14T06:04:42.465Z,1017.86
2017-11-14T06:05:21.738Z,1017.83
2017-11-14T06:06:22.160Z,1017.81
2017-11-14T06:07:22.569Z,1017.87
2017-11-14T06:08:22.984Z,1017.91
2017-11-14T06:09:23.407Z,1017.95
2017-11-14T06:10:44.977Z,1017.97
2017-11-14T06:11:24.263Z,1017.93
2017-11-14T06:12:24.694Z,1017.98
2017-11-14T06:13:25.086Z,1018.00
2017-11-14T06:14:25.503Z,1018.04
2017-11-14T06:15:25.927Z,1018.02
2017-11-14T06:16:47.501Z,1018.03
2017-11-14T06:17:26.766Z,1018.03
2017-11-14T06:18:27.186Z,1018.07
2017-11-14T06:19:27.599Z,1018.06
2017-11-14T06:20:28.021Z,1018.08
2017-11-14T06:21:28.447Z,1018.10
2017-11-14T06:22:50.016Z,1018.06
2017-11-14T06:23:29.283Z,1018.04
2017-11-14T06:24:29.760Z,1018.05
2017-11-14T06:25:30.142Z,1018.07
2017-11-14T06:26:30.538Z,1018.08
2017-11-14T06:27:30.961Z,1018.07
2017-11-14T06:28:52.541Z,1018.06
2017-11-14T06:29:31.805Z,1018.09
2017-11-14T06:30:32.228Z,1018.11
2017-11-14T06:31:32.638Z,1018.07
2017-11-14T06:32:33.060Z,1018.12
2017-11-14T06:33:33.480Z,1018.11
2017-11-14T06:34:55.063Z,1018.14
2017-11-14T06:35:34.312Z,1018.17
2017-11-14T06:36:34.733Z,1018.17
2017-11-14T06:37:35.156Z,1018.18
2017-11-14T06:38:35.582Z,1018.18
2017-11-14T06:39:35.995Z,1018.20
2017-11-14T06:40:57.571Z,1018.17
2017-11-14T06:41:36.835Z,1018.15
2017-11-14T06:42:37.252Z,1018.20
2017-11-14T06:43:37.670Z,1018.18
2017-11-14T06:44:38.092Z,1018.18
2017-11-14T06:45:38.510Z,1018.16
2017-11-14T06:47:00.092Z,1018.15
2017-11-14T06:47:39.353Z,1018.16
2017-11-14T06:48:39.791Z,1018.15
2017-11-14T06:49:40.213Z,1018.16
2017-11-14T06:50:40.609Z,1018.12
2017-11-14T06:51:41.023Z,1018.16
2017-11-14T06:53:02.607Z,1018.17
2017-11-14T06:53:41.873Z,1018.24
2017-11-14T06:54:42.295Z,1018.21
2017-11-14T06:55:42.710Z,1018.24
2017-11-14T06:56:43.126Z,1018.26
2017-11-14T06:57:43.548Z,1018.31
2017-11-14T06:59:05.118Z,1018.34
2017-11-14T06:59:44.384Z,1018.32
2017-11-14T07:00:44.805Z,1018.36
2017-11-14T07:01:45.227Z,1018.33
2017-11-14T07:02:45.644Z,1018.34
2017-11-14T07:03:46.064Z,1018.36
2017-11-14T07:05:07.641Z,1018.37
2017-11-14T07:05:46.911Z,1018.39
2017-11-14T07:06:47.326Z,1018.40
2017-11-14T07:07:47.742Z,1018.44
2017-11-14T07:08:48.159Z,1018.44
2017-11-14T07:09:48.580Z,1018.46
2017-11-14T07:11:10.154Z,1018.47
2017-11-14T07:11:49.423Z,1018.51
2017-11-14T07:12:49.843Z,1018.51
2017-11-14T07:13:50.258Z,1018.51
2017-11-14T07:14:50.681Z,1018.50
2017-11-14T07:15:51.095Z,1018.53
2017-11-14T07:17:12.679Z,1018.53
2017-11-14T07:17:51.938Z,1018.56
2017-11-14T07:18:52.353Z,1018.55
2017-11-14T07:19:52.777Z,1018.54
2017-11-14T07:20:53.199Z,1018.57
2017-11-14T07:21:53.624Z,1018.57
2017-11-14T07:23:15.190Z,1018.56
2017-11-14T07:23:54.461Z,1018.53
2017-11-14T07:24:54.879Z,1018.52
2017-11-14T07:25:55.295Z,1018.57
2017-11-14T07:26:55.715Z,1018.53
2017-11-14T07:27:56.136Z,1018.59
2017-11-14T07:29:17.733Z,1018.53
2017-11-14T07:29:56.972Z,1018.58
2017-11-14T07:30:57.396Z,1018.60
2017-11-14T07:31:57.816Z,1018.61
2017-11-14T07:32:58.236Z,1018.62
2017-11-14T07:33:58.654Z,1018.60
2017-11-14T07:35:20.231Z,1018.55
2017-11-14T07:35:59.493Z,1018.58
2017-11-14T07:36:59.916Z,1018.64
2017-11-14T07:38:00.332Z,1018.62
2017-11-14T07:39:00.752Z,1018.63
2017-11-14T07:40:01.171Z,1018.69
2017-11-14T07:41:22.747Z,1018.68
2017-11-14T07:42:02.018Z,1018.70
2017-11-14T07:43:02.433Z,1018.71
2017-11-14T07:44:02.853Z,1018.70
2017-11-14T07:45:03.272Z,1018.71
2017-11-14T07:46:03.692Z,1018.72
2017-11-14T07:47:25.266Z,1018.75
2017-11-14T07:48:04.539Z,1018.77
2017-11-14T07:49:04.951Z,1018.79
2017-11-14T07:50:05.371Z,1018.80
2017-11-14T07:51:05.795Z,1018.77
2017-11-14T07:52:06.215Z,1018.79
2017-11-14T07:53:27.790Z,1018.80
2017-11-14T07:54:07.059Z,1018.81
2017-11-14T07:55:07.477Z,1018.83
2017-11-14T07:56:07.893Z,1018.86
2017-11-14T07:57:08.309Z,1018.89
2017-11-14T07:58:08.730Z,1018.90
2017-11-14T07:59:30.321Z,1018.90
2017-11-14T08:00:09.574Z,1018.89
2017-11-14T08:01:10.017Z,1018.89
2017-11-14T08:02:10.430Z,1018.87
2017-11-14T08:03:10.849Z,1018.87
2017-11-14T08:04:11.277Z,1018.82
2017-11-14T08:05:32.853Z,1018.85
2017-11-14T08:06:12.098Z,1018.82
2017-11-14T08:07:12.512Z,1018.79
2017-11-14T08:08:12.928Z,1018.83
2017-11-14T08:09:13.390Z,1018.79
2017-11-14T08:10:13.776Z,1018.74
2017-11-14T08:11:35.374Z,1018.76
2017-11-14T08:12:14.608Z,1018.73
2017-11-14T08:13:15.029Z,1018.70
2017-11-14T08:14:15.472Z,1018.76
2017-11-14T08:15:15.915Z,1018.75
2017-11-14T08:16:16.289Z,1018.76
2017-11-14T08:17:37.884Z,1018.75
2017-11-14T08:18:17.137Z,1018.72
2017-11-14T08:19:17.553Z,1018.71
2017-11-14T08:20:17.968Z,1018.70
2017-11-14T08:21:18.386Z,1018.70
2017-11-14T08:22:18.812Z,1018.72
2017-11-14T08:23:40.387Z,1018.74
2017-11-14T08:24:19.647Z,1018.75
2017-11-14T08:25:20.069Z,1018.75
2017-11-14T08:26:20.497Z,1018.77
2017-11-14T08:27:20.909Z,1018.79
2017-11-14T08:28:21.341Z,1018.82
2017-11-14T08:29:42.950Z,1018.76
2017-11-14T08:30:22.181Z,1018.81
2017-11-14T08:31:22.605Z,1018.86
2017-11-14T08:32:23.019Z,1018.80
2017-11-14T08:33:23.517Z,1018.78
2017-11-14T08:34:23.869Z,1018.77
2017-11-14T08:35:45.425Z,1018.75
2017-11-14T08:36:24.726Z,1018.72
2017-11-14T08:37:25.113Z,1018.72
2017-11-14T08:38:25.586Z,1018.68
2017-11-14T08:39:25.949Z,1018.68
2017-11-14T08:40:26.372Z,1018.66
2017-11-14T08:41:47.969Z,1018.69
2017-11-14T08:42:27.211Z,1018.77
2017-11-14T08:43:27.635Z,1018.80
2017-11-14T08:44:28.052Z,1018.79
2017-11-14T08:45:28.501Z,1018.80
2017-11-14T08:46:28.916Z,1018.80
2017-11-14T08:47:50.481Z,1018.81
2017-11-14T08:48:29.739Z,1018.81
2017-11-14T08:49:30.156Z,1018.83
2017-11-14T08:50:30.595Z,1018.83
2017-11-14T08:51:30.996Z,1018.84
2017-11-14T08:52:31.417Z,1018.83
2017-11-14T08:53:53.002Z,1018.85
2017-11-14T08:54:32.257Z,1018.92
2017-11-14T08:55:32.684Z,1018.86
2017-11-14T08:56:33.116Z,1018.91
2017-11-14T08:57:33.527Z,1018.93
2017-11-14T08:58:34.026Z,1018.94
2017-11-14T08:59:55.529Z,1018.96
2017-11-14T09:00:34.807Z,1018.93
2017-11-14T09:01:35.214Z,1018.94
2017-11-14T09:02:35.638Z,1018.90
2017-11-14T09:03:36.062Z,1018.87
2017-11-14T09:04:36.467Z,1018.88
2017-11-14T09:05:58.081Z,1018.89
2017-11-14T09:06:37.314Z,1018.87
2017-11-14T09:07:37.736Z,1018.88
2017-11-14T09:08:38.193Z,1018.88
2017-11-14T09:09:38.580Z,1018.92
2017-11-14T09:10:39.031Z,1018.91
2017-11-14T09:12:00.576Z,1018.99
2017-11-14T09:12:39.843Z,1018.93
2017-11-14T09:13:40.258Z,1018.92
2017-11-14T09:14:40.697Z,1018.96
2017-11-14T09:15:41.101Z,1018.98
2017-11-14T09:16:41.569Z,1018.99
2017-11-14T09:18:03.167Z,1018.98
2017-11-14T09:18:42.398Z,1019.00
2017-11-14T09:19:42.810Z,1019.01
2017-11-14T09:20:43.209Z,1019.04
2017-11-14T09:21:43.633Z,1019.04
2017-11-14T09:22:44.049Z,1019.12
2017-11-14T09:24:05.638Z,1019.10
2017-11-14T09:24:44.909Z,1019.06
2017-11-14T09:25:45.384Z,1019.09
2017-11-14T09:26:45.736Z,1019.06
2017-11-14T09:27:46.188Z,1019.11
2017-11-14T09:28:46.634Z,1019.11
2017-11-14T09:30:08.165Z,1019.11
2017-11-14T09:30:47.488Z,1019.09
2017-11-14T09:31:47.841Z,1019.13
2017-11-14T09:32:48.285Z,1019.10
2017-11-14T09:33:48.680Z,1019.09
2017-11-14T09:34:49.188Z,1019.07
2017-11-14T09:36:10.684Z,1019.10
2017-11-14T09:36:49.959Z,1019.05
2017-11-14T09:37:50.377Z,1019.04
2017-11-14T09:38:50.808Z,1019.09
2017-11-14T09:39:51.232Z,1019.07
2017-11-14T09:40:51.641Z,1019.07
2017-11-14T09:42:13.252Z,1019.09
2017-11-14T09:42:52.493Z,1019.12
2017-11-14T09:43:52.907Z,1019.13
2017-11-14T09:44:53.324Z,1019.11
2017-11-14T09:45:53.740Z,1019.16
2017-11-14T09:46:54.203Z,1019.12
2017-11-14T09:48:15.771Z,1019.14
2017-11-14T09:48:55.049Z,1019.15
2017-11-14T09:49:55.438Z,1019.14
2017-11-14T09:50:55.868Z,1019.15
2017-11-14T09:51:56.269Z,1019.17
2017-11-14T09:52:56.746Z,1019.16
2017-11-14T09:54:18.312Z,1019.12
2017-11-14T09:54:57.559Z,1019.13
2017-11-14T09:55:57.961Z,1019.13
2017-11-14T09:56:58.500Z,1019.08
2017-11-14T09:57:58.830Z,1019.07
2017-11-14T09:58:59.235Z,1019.03
2017-11-14T10:00:20.803Z,1019.04
2017-11-14T10:01:00.068Z,1019.04
2017-11-14T10:02:00.492Z,1019.08
2017-11-14T10:03:00.914Z,1019.09
2017-11-14T10:04:01.393Z,1019.09
2017-11-14T10:05:01.797Z,1019.09
2017-11-14T10:06:23.376Z,1019.08
2017-11-14T10:07:02.608Z,1019.07
2017-11-14T10:08:03.028Z,1019.04
2017-11-14T10:09:03.449Z,1019.06
2017-11-14T10:10:03.900Z,1019.01
2017-11-14T10:11:04.295Z,1019.01
2017-11-14T10:12:25.907Z,1019.00
2017-11-14T10:13:05.169Z,1018.97
2017-11-14T10:14:05.567Z,1018.98
2017-11-14T10:15:06.013Z,1018.94
2017-11-14T10:16:06.409Z,1018.96
2017-11-14T10:17:06.874Z,1018.94
2017-11-14T10:18:28.414Z,1018.90
2017-11-14T10:19:07.675Z,1018.87
2017-11-14T10:20:08.116Z,1018.88
2017-11-14T10:21:08.520Z,1018.89
2017-11-14T10:22:08.955Z,1018.89
2017-11-14T10:23:09.371Z,1018.90
2017-11-14T10:24:30.961Z,1018.92
2017-11-14T10:25:10.211Z,1018.90
2017-11-14T10:26:10.634Z,1018.87
2017-11-14T10:27:11.057Z,1018.88
2017-11-14T10:28:11.490Z,1018.82
2017-11-14T10:29:11.908Z,1018.84
2017-11-14T10:30:33.502Z,1018.87
2017-11-14T10:31:12.750Z,1018.82
2017-11-14T10:32:13.210Z,1018.88
2017-11-14T10:33:13.643Z,1018.90
2017-11-14T10:34:14.166Z,1018.91
2017-11-14T10:35:14.452Z,1018.90
2017-11-14T10:36:36.025Z,1018.85
2017-11-14T10:37:15.313Z,1018.83
2017-11-14T10:38:15.791Z,1018.84
2017-11-14T10:39:16.194Z,1018.87
2017-11-14T10:40:16.584Z,1018.92
2017-11-14T10:41:17.014Z,1018.87
2017-11-14T10:42:38.593Z,1018.91
2017-11-14T10:43:17.829Z,1018.89
2017-11-14T10:44:18.258Z,1018.91
2017-11-14T10:45:18.746Z,1018.92
2017-11-14T10:46:19.105Z,1018.90
2017-11-14T10:47:19.582Z,1018.89
2017-11-14T10:48:41.090Z,1018.88
2017-11-14T10:49:20.420Z,1018.90
2017-11-14T10:50:20.780Z,1018.87
2017-11-14T10:51:21.241Z,1018.94
2017-11-14T10:52:21.658Z,1018.93
2017-11-14T10:53:22.097Z,1018.93
2017-11-14T10:54:43.637Z,1018.94
2017-11-14T10:55:22.908Z,1018.93
2017-11-14T10:56:23.320Z,1018.89
2017-11-14T10:57:23.740Z,1018.85
2017-11-14T10:58:24.168Z,1018.87
2017-11-14T10:59:24.623Z,1018.85
2017-11-14T11:00:46.194Z,1018.85
2017-11-14T11:01:25.463Z,1018.83
2017-11-14T11:02:25.893Z,1018.83
2017-11-14T11:03:26.317Z,1018.83
2017-11-14T11:04:26.704Z,1018.85
2017-11-14T11:05:27.176Z,1018.83
2017-11-14T11:06:48.733Z,1018.81
2017-11-14T11:07:28.012Z,1018.78
2017-11-14T11:08:28.402Z,1018.78
2017-11-14T11:09:28.828Z,1018.75
2017-11-14T11:10:29.240Z,1018.77
2017-11-14T11:11:29.664Z,1018.83
2017-11-14T11:12:51.242Z,1018.83
2017-11-14T11:13:30.513Z,1018.83
2017-11-14T11:14:30.933Z,1018.83
2017-11-14T11:15:31.353Z,1018.80
2017-11-14T11:16:31.774Z,1018.83
2017-11-14T11:17:32.202Z,1018.87
2017-11-14T11:18:53.788Z,1018.82
2017-11-14T11:19:33.048Z,1018.86
2017-11-14T11:20:33.470Z,1018.79
2017-11-14T11:21:33.900Z,1018.79
2017-11-14T11:22:34.318Z,1018.72
2017-11-14T11:23:34.740Z,1018.75
2017-11-14T11:24:56.325Z,1018.70
2017-11-14T11:25:35.587Z,1018.68
2017-11-14T11:26:36.006Z,1018.68
2017-11-14T11:27:36.431Z,1018.68
2017-11-14T11:28:36.855Z,1018.73
2017-11-14T11:29:37.280Z,1018.70
2017-11-14T11:30:58.870Z,1018.68
2017-11-14T11:31:38.125Z,1018.70
2017-11-14T11:32:38.546Z,1018.67
2017-11-14T11:33:38.972Z,1018.68
2017-11-14T11:34:39.392Z,1018.69
2017-11-14T11:35:39.819Z,1018.66
2017-11-14T11:37:01.396Z,1018.71
2017-11-14T11:37:40.658Z,1018.71
2017-11-14T11:38:41.086Z,1018.68
2017-11-14T11:39:41.510Z,1018.66
2017-11-14T11:40:41.934Z,1018.69
2017-11-14T11:41:42.351Z,1018.66
2017-11-14T11:43:04.393Z,1018.71
2017-11-14T11:43:43.222Z,1018.67
2017-11-14T11:44:43.629Z,1018.67
2017-11-14T11:45:44.056Z,1018.63
2017-11-14T11:46:44.472Z,1018.65
2017-11-14T11:47:44.892Z,1018.64
2017-11-14T11:49:06.476Z,1018.63
2017-11-14T11:49:45.742Z,1018.61
2017-11-14T11:50:46.162Z,1018.58
2017-11-14T11:51:46.586Z,1018.56
2017-11-14T11:52:47.013Z,1018.56
2017-11-14T11:53:47.435Z,1018.51
2017-11-14T11:55:09.016Z,1018.54
2017-11-14T11:55:48.280Z,1018.51
2017-11-14T11:56:48.704Z,1018.54
2017-11-14T11:57:49.128Z,1018.53
2017-11-14T11:58:49.550Z,1018.52
2017-11-14T11:59:49.975Z,1018.48
2017-11-14T12:01:11.555Z,1018.51
2017-11-14T12:01:50.827Z,1018.51
2017-11-14T12:02:51.245Z,1018.57
2017-11-14T12:03:51.667Z,1018.56
2017-11-14T12:04:52.087Z,1018.55
2017-11-14T12:05:52.512Z,1018.51
2017-11-14T12:07:14.097Z,1018.52
2017-11-14T12:07:53.358Z,1018.57
2017-11-14T12:08:53.786Z,1018.55
2017-11-14T12:09:54.206Z,1018.52
2017-11-14T12:10:54.631Z,1018.52